Terminal Aerodrome Forecast
Issued by NWS

Current Version | Previous Version | Graphics & Text | Print | Product List | Glossary On
Versions: 1 2 3 4 5 6 7 8 9 10 11 12 13 14 15 16 17 18 19 20 21 22 23 24 25 26
000
FTUS41 KILN 210547
TAFLUK
TAF
KLUK 210547Z 2106/2206 20004KT P6SM BKN050
     FM211000 22004KT P6SM -SHRA VCTS BKN050CB
     FM211300 27004KT P6SM BKN050
     FM211800 24005KT P6SM VCSH BKN050
     FM212000 27006KT P6SM -SHRA VCTS BKN040CB
     FM220200 18004KT P6SM VCSH BKN040
     FM220500 00000KT 3SM BR SCT040=

USA.gov is the U.S. government's official web portal to all federal, state and local government web resources and services.